KPBI/PBI METAR and TAF weather

Enter ICAO airport designator
Station Type Date Time Source
KPBI METAR 2021/09/27 06:53 UTC NOAA

KPBI 270653Z 00000KT 10SM CLR 23/18 A3005 RMK AO2 SLP174 T02280183


Station Type Date Time Source
KPBI Decoded METAR 2021/09/27 06:53 UTC NOAA

PALM BEACH INTERNATIONAL, FL, United States (KPBI) 26-41N 80-06W 6M
Sep 27, 2021 - 02:53 AM EDT / 2021.09.27 0653 UTC
Wind: Calm:0
Visibility: 10 mile(s):0
Sky conditions: clear
Temperature: 73.0 F (22.8 C)
Dew Point: 64.9 F (18.3 C)
Relative Humidity: 75%
Pressure (altimeter): 30.05 in. Hg (1017 hPa)
ob: KPBI 270653Z 00000KT 10SM CLR 23/18 A3005 RMK AO2 SLP174 T02280183
cycle: 7

Station Type Date Time Source
KPBI TAF 2021/09/27 06:27 UTC NOAA

TAF KPBI 270520Z 2706/2806 06008KT P6SM FEW035
FM271500 06014KT P6SM SCT035 BKN050
FM280200 07007KT P6SM SCT030

Example: see airport list